sensor_id;sensor_type;location;lat;lon;timestamp;P1;durP1;ratioP1;P2;durP2;ratioP2
2488;SDS011;1255;48.716;9.124;2023-02-12T00:01:09;20.25;;;11.93;;
2488;SDS011;1255;48.716;9.124;2023-02-12T00:03:37;20.13;;;12.80;;
2488;SDS011;1255;48.716;9.124;2023-02-12T00:06:05;20.10;;;10.75;;
2488;SDS011;1255;48.716;9.124;2023-02-12T00:08:33;16.55;;;11.70;;
2488;SDS011;1255;48.716;9.124;2023-02-12T00:11:05;20.00;;;11.20;;
2488;SDS011;1255;48.716;9.124;2023-02-12T00:13:33;22.90;;;13.30;;
2488;SDS011;1255;48.716;9.124;2023-02-12T00:16:02;15.48;;;11.05;;
2488;SDS011;1255;48.716;9.124;2023-02-12T00:18:29;17.77;;;10.95;;
2488;SDS011;1255;48.716;9.124;2023-02-12T00:20:57;19.38;;;10.50;;
2488;SDS011;1255;48.716;9.124;2023-02-12T00:23:24;16.45;;;11.27;;
2488;SDS011;1255;48.716;9.124;2023-02-12T00:25:52;17.20;;;10.10;;
2488;SDS011;1255;48.716;9.124;2023-02-12T00:28:19;15.68;;;9.98;;
2488;SDS011;1255;48.716;9.124;2023-02-12T00:30:46;17.38;;;8.95;;
2488;SDS011;1255;48.716;9.124;2023-02-12T00:33:12;14.02;;;9.40;;
2488;SDS011;1255;48.716;9.124;2023-02-12T00:35:39;14.90;;;10.52;;
2488;SDS011;1255;48.716;9.124;2023-02-12T00:38:06;14.13;;;9.60;;
2488;SDS011;1255;48.716;9.124;2023-02-12T00:40:32;13.55;;;8.85;;
2488;SDS011;1255;48.716;9.124;2023-02-12T00:43:00;15.18;;;8.65;;
2488;SDS011;1255;48.716;9.124;2023-02-12T00:45:27;13.20;;;8.25;;
2488;SDS011;1255;48.716;9.124;2023-02-12T00:47:54;14.23;;;10.85;;
2488;SDS011;1255;48.716;9.124;2023-02-12T00:50:20;14.15;;;8.60;;
2488;SDS011;1255;48.716;9.124;2023-02-12T00:52:47;17.33;;;9.70;;
2488;SDS011;1255;48.716;9.124;2023-02-12T00:55:14;11.98;;;8.30;;
2488;SDS011;1255;48.716;9.124;2023-02-12T00:57:40;10.25;;;8.77;;
2488;SDS011;1255;48.716;9.124;2023-02-12T01:00:09;12.55;;;9.35;;
2488;SDS011;1255;48.716;9.124;2023-02-12T01:02:37;11.98;;;8.48;;
2488;SDS011;1255;48.716;9.124;2023-02-12T01:05:04;12.95;;;8.60;;
2488;SDS011;1255;48.716;9.124;2023-02-12T01:07:31;14.90;;;9.60;;
2488;SDS011;1255;48.716;9.124;2023-02-12T01:09:57;12.82;;;9.05;;
2488;SDS011;1255;48.716;9.124;2023-02-12T01:12:24;20.45;;;9.65;;
2488;SDS011;1255;48.716;9.124;2023-02-12T01:14:51;15.07;;;8.77;;
2488;SDS011;1255;48.716;9.124;2023-02-12T01:17:19;15.52;;;9.35;;
2488;SDS011;1255;48.716;9.124;2023-02-12T01:19:45;16.55;;;9.82;;
2488;SDS011;1255;48.716;9.124;2023-02-12T01:22:12;15.90;;;9.50;;
2488;SDS011;1255;48.716;9.124;2023-02-12T01:24:39;12.88;;;9.27;;
2488;SDS011;1255;48.716;9.124;2023-02-12T01:27:06;16.45;;;9.10;;
2488;SDS011;1255;48.716;9.124;2023-02-12T01:29:32;12.68;;;8.80;;
2488;SDS011;1255;48.716;9.124;2023-02-12T01:31:59;18.90;;;11.38;;
2488;SDS011;1255;48.716;9.124;2023-02-12T01:34:27;12.48;;;9.30;;
2488;SDS011;1255;48.716;9.124;2023-02-12T01:36:54;13.80;;;8.75;;
2488;SDS011;1255;48.716;9.124;2023-02-12T01:39:20;15.75;;;10.45;;
2488;SDS011;1255;48.716;9.124;2023-02-12T01:41:47;12.25;;;9.05;;
2488;SDS011;1255;48.716;9.124;2023-02-12T01:44:16;12.65;;;8.45;;
2488;SDS011;1255;48.716;9.124;2023-02-12T01:46:43;13.50;;;8.75;;
2488;SDS011;1255;48.716;9.124;2023-02-12T01:49:12;16.42;;;10.23;;
2488;SDS011;1255;48.716;9.124;2023-02-12T01:51:44;15.88;;;10.32;;
2488;SDS011;1255;48.716;9.124;2023-02-12T01:54:14;17.60;;;9.57;;
2488;SDS011;1255;48.716;9.124;2023-02-12T01:56:44;12.15;;;8.77;;
2488;SDS011;1255;48.716;9.124;2023-02-12T01:59:11;17.40;;;9.77;;
2488;SDS011;1255;48.716;9.124;2023-02-12T02:01:38;13.68;;;9.10;;
2488;SDS011;1255;48.716;9.124;2023-02-12T02:04:06;18.25;;;10.95;;
2488;SDS011;1255;48.716;9.124;2023-02-12T02:06:37;13.43;;;10.38;;
2488;SDS011;1255;48.716;9.124;2023-02-12T02:09:10;12.48;;;9.30;;
2488;SDS011;1255;48.716;9.124;2023-02-12T02:11:38;15.13;;;10.65;;
2488;SDS011;1255;48.716;9.124;2023-02-12T02:14:22;13.77;;;9.80;;
2488;SDS011;1255;48.716;9.124;2023-02-12T02:17:09;12.57;;;8.80;;
2488;SDS011;1255;48.716;9.124;2023-02-12T02:20:15;16.27;;;9.95;;
2488;SDS011;1255;48.716;9.124;2023-02-12T02:23:11;13.65;;;9.48;;
2488;SDS011;1255;48.716;9.124;2023-02-12T02:26:06;12.25;;;8.80;;
2488;SDS011;1255;48.716;9.124;2023-02-12T02:28:55;18.33;;;11.18;;
2488;SDS011;1255;48.716;9.124;2023-02-12T02:31:31;16.52;;;9.77;;
2488;SDS011;1255;48.716;9.124;2023-02-12T02:34:04;14.77;;;9.65;;
2488;SDS011;1255;48.716;9.124;2023-02-12T02:36:37;13.93;;;9.20;;
2488;SDS011;1255;48.716;9.124;2023-02-12T02:39:12;16.63;;;10.55;;
2488;SDS011;1255;48.716;9.124;2023-02-12T02:41:43;12.90;;;9.30;;
2488;SDS011;1255;48.716;9.124;2023-02-12T02:44:14;14.45;;;9.75;;
2488;SDS011;1255;48.716;9.124;2023-02-12T02:46:45;14.65;;;8.85;;
2488;SDS011;1255;48.716;9.124;2023-02-12T02:49:15;16.60;;;10.07;;
2488;SDS011;1255;48.716;9.124;2023-02-12T02:51:46;16.98;;;9.75;;
2488;SDS011;1255;48.716;9.124;2023-02-12T02:54:17;15.40;;;10.40;;
2488;SDS011;1255;48.716;9.124;2023-02-12T02:56:47;15.18;;;9.75;;
2488;SDS011;1255;48.716;9.124;2023-02-12T02:59:18;18.48;;;11.30;;
2488;SDS011;1255;48.716;9.124;2023-02-12T03:01:51;16.33;;;10.18;;
2488;SDS011;1255;48.716;9.124;2023-02-12T03:04:23;18.75;;;11.82;;
2488;SDS011;1255;48.716;9.124;2023-02-12T03:06:56;15.82;;;10.05;;
2488;SDS011;1255;48.716;9.124;2023-02-12T03:09:29;15.52;;;9.98;;
2488;SDS011;1255;48.716;9.124;2023-02-12T03:12:00;14.82;;;9.40;;
2488;SDS011;1255;48.716;9.124;2023-02-12T03:14:31;16.63;;;9.55;;
2488;SDS011;1255;48.716;9.124;2023-02-12T03:17:05;15.20;;;10.38;;
2488;SDS011;1255;48.716;9.124;2023-02-12T03:19:36;14.70;;;9.07;;
2488;SDS011;1255;48.716;9.124;2023-02-12T03:22:07;13.40;;;9.80;;
2488;SDS011;1255;48.716;9.124;2023-02-12T03:24:38;14.80;;;9.55;;
2488;SDS011;1255;48.716;9.124;2023-02-12T03:27:08;14.25;;;9.30;;
2488;SDS011;1255;48.716;9.124;2023-02-12T03:29:39;17.92;;;10.20;;
2488;SDS011;1255;48.716;9.124;2023-02-12T03:32:12;15.15;;;9.23;;
2488;SDS011;1255;48.716;9.124;2023-02-12T03:34:46;13.38;;;9.77;;
2488;SDS011;1255;48.716;9.124;2023-02-12T03:37:17;16.60;;;9.52;;
2488;SDS011;1255;48.716;9.124;2023-02-12T03:39:50;14.50;;;8.75;;
2488;SDS011;1255;48.716;9.124;2023-02-12T03:42:22;17.75;;;10.07;;
2488;SDS011;1255;48.716;9.124;2023-02-12T03:44:56;14.38;;;9.50;;
2488;SDS011;1255;48.716;9.124;2023-02-12T03:47:30;16.10;;;9.90;;
2488;SDS011;1255;48.716;9.124;2023-02-12T03:50:05;13.00;;;10.25;;
2488;SDS011;1255;48.716;9.124;2023-02-12T03:52:36;16.65;;;10.48;;
2488;SDS011;1255;48.716;9.124;2023-02-12T03:55:03;15.73;;;10.15;;
2488;SDS011;1255;48.716;9.124;2023-02-12T03:57:32;16.73;;;9.95;;
2488;SDS011;1255;48.716;9.124;2023-02-12T04:00:04;17.80;;;10.70;;
2488;SDS011;1255;48.716;9.124;2023-02-12T04:02:36;13.73;;;8.98;;
2488;SDS011;1255;48.716;9.124;2023-02-12T04:05:03;17.58;;;11.00;;
2488;SDS011;1255;48.716;9.124;2023-02-12T04:07:30;14.30;;;10.95;;
2488;SDS011;1255;48.716;9.124;2023-02-12T04:09:57;15.13;;;9.55;;
2488;SDS011;1255;48.716;9.124;2023-02-12T04:12:29;19.80;;;10.95;;
2488;SDS011;1255;48.716;9.124;2023-02-12T04:15:04;14.70;;;9.82;;
2488;SDS011;1255;48.716;9.124;2023-02-12T04:17:45;15.45;;;10.40;;
2488;SDS011;1255;48.716;9.124;2023-02-12T04:20:18;18.90;;;10.98;;
2488;SDS011;1255;48.716;9.124;2023-02-12T04:22:53;18.17;;;11.32;;
2488;SDS011;1255;48.716;9.124;2023-02-12T04:25:31;13.13;;;8.90;;
2488;SDS011;1255;48.716;9.124;2023-02-12T04:28:11;18.98;;;10.85;;
2488;SDS011;1255;48.716;9.124;2023-02-12T04:30:46;17.15;;;10.57;;
2488;SDS011;1255;48.716;9.124;2023-02-12T04:33:22;15.13;;;10.43;;
2488;SDS011;1255;48.716;9.124;2023-02-12T04:35:53;20.02;;;11.80;;
2488;SDS011;1255;48.716;9.124;2023-02-12T04:38:25;18.17;;;10.63;;
2488;SDS011;1255;48.716;9.124;2023-02-12T04:40:56;14.70;;;9.70;;
2488;SDS011;1255;48.716;9.124;2023-02-12T04:43:27;17.15;;;11.38;;
2488;SDS011;1255;48.716;9.124;2023-02-12T04:45:54;14.50;;;9.90;;
2488;SDS011;1255;48.716;9.124;2023-02-12T04:48:22;15.07;;;11.27;;
2488;SDS011;1255;48.716;9.124;2023-02-12T04:50:49;24.10;;;10.20;;
2488;SDS011;1255;48.716;9.124;2023-02-12T04:53:16;18.88;;;10.65;;
2488;SDS011;1255;48.716;9.124;2023-02-12T04:55:43;13.90;;;9.73;;
2488;SDS011;1255;48.716;9.124;2023-02-12T04:58:09;15.80;;;11.38;;
2488;SDS011;1255;48.716;9.124;2023-02-12T05:00:36;18.10;;;10.63;;
2488;SDS011;1255;48.716;9.124;2023-02-12T05:03:03;16.17;;;10.27;;
2488;SDS011;1255;48.716;9.124;2023-02-12T05:05:31;17.27;;;11.70;;
2488;SDS011;1255;48.716;9.124;2023-02-12T05:07:58;15.63;;;9.57;;
2488;SDS011;1255;48.716;9.124;2023-02-12T05:10:25;16.98;;;9.85;;
2488;SDS011;1255;48.716;9.124;2023-02-12T05:12:52;17.48;;;9.73;;
2488;SDS011;1255;48.716;9.124;2023-02-12T05:15:20;17.83;;;11.50;;
2488;SDS011;1255;48.716;9.124;2023-02-12T05:17:47;15.63;;;10.30;;
2488;SDS011;1255;48.716;9.124;2023-02-12T05:20:13;12.80;;;10.20;;
2488;SDS011;1255;48.716;9.124;2023-02-12T05:22:41;13.50;;;10.00;;
2488;SDS011;1255;48.716;9.124;2023-02-12T05:25:08;15.85;;;10.77;;
2488;SDS011;1255;48.716;9.124;2023-02-12T05:27:35;17.02;;;11.45;;
2488;SDS011;1255;48.716;9.124;2023-02-12T05:30:02;18.17;;;10.85;;
2488;SDS011;1255;48.716;9.124;2023-02-12T05:32:30;15.70;;;10.40;;
2488;SDS011;1255;48.716;9.124;2023-02-12T05:34:57;18.20;;;12.57;;
2488;SDS011;1255;48.716;9.124;2023-02-12T05:37:23;20.60;;;12.68;;
2488;SDS011;1255;48.716;9.124;2023-02-12T05:39:51;19.42;;;10.38;;
2488;SDS011;1255;48.716;9.124;2023-02-12T05:42:18;15.95;;;11.27;;
2488;SDS011;1255;48.716;9.124;2023-02-12T05:44:45;17.58;;;10.30;;
2488;SDS011;1255;48.716;9.124;2023-02-12T05:47:12;13.85;;;8.88;;
2488;SDS011;1255;48.716;9.124;2023-02-12T05:49:38;18.88;;;11.38;;
2488;SDS011;1255;48.716;9.124;2023-02-12T05:52:06;15.75;;;9.32;;
2488;SDS011;1255;48.716;9.124;2023-02-12T05:54:33;21.42;;;11.18;;
2488;SDS011;1255;48.716;9.124;2023-02-12T05:57:01;18.52;;;12.27;;
2488;SDS011;1255;48.716;9.124;2023-02-12T05:59:28;16.15;;;11.13;;
2488;SDS011;1255;48.716;9.124;2023-02-12T06:01:54;19.17;;;11.15;;
2488;SDS011;1255;48.716;9.124;2023-02-12T06:04:22;18.70;;;10.70;;
2488;SDS011;1255;48.716;9.124;2023-02-12T06:06:50;17.13;;;11.80;;
2488;SDS011;1255;48.716;9.124;2023-02-12T06:09:17;17.10;;;12.07;;
2488;SDS011;1255;48.716;9.124;2023-02-12T06:11:44;15.25;;;11.48;;
2488;SDS011;1255;48.716;9.124;2023-02-12T06:14:13;15.02;;;11.40;;
2488;SDS011;1255;48.716;9.124;2023-02-12T06:16:43;15.68;;;9.52;;
2488;SDS011;1255;48.716;9.124;2023-02-12T06:19:09;14.10;;;10.45;;
2488;SDS011;1255;48.716;9.124;2023-02-12T06:21:36;15.77;;;10.18;;
2488;SDS011;1255;48.716;9.124;2023-02-12T06:24:03;14.02;;;10.20;;
2488;SDS011;1255;48.716;9.124;2023-02-12T06:26:30;14.15;;;9.98;;
2488;SDS011;1255;48.716;9.124;2023-02-12T06:28:57;17.95;;;11.65;;
2488;SDS011;1255;48.716;9.124;2023-02-12T06:31:25;15.77;;;10.13;;
2488;SDS011;1255;48.716;9.124;2023-02-12T06:33:54;17.23;;;10.85;;
2488;SDS011;1255;48.716;9.124;2023-02-12T06:36:22;17.33;;;10.25;;
2488;SDS011;1255;48.716;9.124;2023-02-12T06:38:49;18.42;;;10.63;;
2488;SDS011;1255;48.716;9.124;2023-02-12T06:41:17;16.90;;;10.68;;
2488;SDS011;1255;48.716;9.124;2023-02-12T06:43:44;15.48;;;9.85;;
2488;SDS011;1255;48.716;9.124;2023-02-12T06:46:10;18.25;;;9.60;;
2488;SDS011;1255;48.716;9.124;2023-02-12T06:48:38;16.75;;;11.10;;
2488;SDS011;1255;48.716;9.124;2023-02-12T06:51:06;14.13;;;10.15;;
2488;SDS011;1255;48.716;9.124;2023-02-12T06:53:33;19.67;;;10.82;;
2488;SDS011;1255;48.716;9.124;2023-02-12T06:56:01;17.25;;;10.90;;
2488;SDS011;1255;48.716;9.124;2023-02-12T06:58:28;18.75;;;10.25;;
2488;SDS011;1255;48.716;9.124;2023-02-12T07:00:55;16.30;;;11.43;;
2488;SDS011;1255;48.716;9.124;2023-02-12T07:03:21;17.00;;;11.02;;
2488;SDS011;1255;48.716;9.124;2023-02-12T07:05:49;15.65;;;10.65;;
2488;SDS011;1255;48.716;9.124;2023-02-12T07:08:16;19.42;;;12.90;;
2488;SDS011;1255;48.716;9.124;2023-02-12T07:10:46;17.23;;;12.13;;
2488;SDS011;1255;48.716;9.124;2023-02-12T07:13:14;18.83;;;12.63;;
2488;SDS011;1255;48.716;9.124;2023-02-12T07:15:41;25.15;;;13.65;;
2488;SDS011;1255;48.716;9.124;2023-02-12T07:18:08;19.88;;;12.52;;
2488;SDS011;1255;48.716;9.124;2023-02-12T07:20:34;17.23;;;11.88;;
2488;SDS011;1255;48.716;9.124;2023-02-12T07:23:02;20.58;;;11.52;;
2488;SDS011;1255;48.716;9.124;2023-02-12T07:25:29;18.98;;;11.75;;
2488;SDS011;1255;48.716;9.124;2023-02-12T07:27:56;21.00;;;12.45;;
2488;SDS011;1255;48.716;9.124;2023-02-12T07:30:22;16.27;;;10.85;;
2488;SDS011;1255;48.716;9.124;2023-02-12T07:32:49;22.58;;;15.20;;
2488;SDS011;1255;48.716;9.124;2023-02-12T07:35:16;25.63;;;13.60;;
2488;SDS011;1255;48.716;9.124;2023-02-12T07:37:42;19.23;;;12.77;;
2488;SDS011;1255;48.716;9.124;2023-02-12T07:40:10;18.33;;;11.63;;
2488;SDS011;1255;48.716;9.124;2023-02-12T07:42:38;18.75;;;11.70;;
2488;SDS011;1255;48.716;9.124;2023-02-12T07:45:04;18.30;;;11.07;;
2488;SDS011;1255;48.716;9.124;2023-02-12T07:47:32;17.80;;;11.10;;
2488;SDS011;1255;48.716;9.124;2023-02-12T07:49:59;18.65;;;12.10;;
2488;SDS011;1255;48.716;9.124;2023-02-12T07:52:26;16.50;;;11.23;;
2488;SDS011;1255;48.716;9.124;2023-02-12T07:54:53;17.58;;;11.18;;
2488;SDS011;1255;48.716;9.124;2023-02-12T07:57:21;20.38;;;13.10;;
2488;SDS011;1255;48.716;9.124;2023-02-12T07:59:47;17.25;;;11.95;;
2488;SDS011;1255;48.716;9.124;2023-02-12T08:02:14;20.42;;;13.32;;
2488;SDS011;1255;48.716;9.124;2023-02-12T08:04:41;20.05;;;13.05;;
2488;SDS011;1255;48.716;9.124;2023-02-12T08:07:07;24.27;;;14.27;;
2488;SDS011;1255;48.716;9.124;2023-02-12T08:09:34;19.58;;;13.27;;
2488;SDS011;1255;48.716;9.124;2023-02-12T08:12:01;19.55;;;13.65;;
2488;SDS011;1255;48.716;9.124;2023-02-12T08:14:29;19.50;;;12.70;;
2488;SDS011;1255;48.716;9.124;2023-02-12T08:16:56;20.13;;;13.48;;
2488;SDS011;1255;48.716;9.124;2023-02-12T08:19:22;17.45;;;12.80;;
2488;SDS011;1255;48.716;9.124;2023-02-12T08:21:49;19.15;;;12.65;;
2488;SDS011;1255;48.716;9.124;2023-02-12T08:24:16;21.13;;;13.52;;
2488;SDS011;1255;48.716;9.124;2023-02-12T08:26:44;23.75;;;15.27;;
2488;SDS011;1255;48.716;9.124;2023-02-12T08:29:11;19.67;;;13.05;;
2488;SDS011;1255;48.716;9.124;2023-02-12T08:31:41;17.80;;;12.63;;
2488;SDS011;1255;48.716;9.124;2023-02-12T08:34:14;19.23;;;13.35;;
2488;SDS011;1255;48.716;9.124;2023-02-12T08:36:42;21.88;;;13.48;;
2488;SDS011;1255;48.716;9.124;2023-02-12T08:39:10;17.85;;;12.00;;
2488;SDS011;1255;48.716;9.124;2023-02-12T08:41:37;18.52;;;13.35;;
2488;SDS011;1255;48.716;9.124;2023-02-12T08:44:06;20.98;;;13.68;;
2488;SDS011;1255;48.716;9.124;2023-02-12T08:46:34;21.83;;;15.60;;
2488;SDS011;1255;48.716;9.124;2023-02-12T08:49:04;23.33;;;14.48;;
2488;SDS011;1255;48.716;9.124;2023-02-12T08:51:34;24.38;;;15.00;;
2488;SDS011;1255;48.716;9.124;2023-02-12T08:54:03;23.52;;;17.73;;
2488;SDS011;1255;48.716;9.124;2023-02-12T08:56:32;22.25;;;15.70;;
2488;SDS011;1255;48.716;9.124;2023-02-12T08:59:00;25.15;;;16.15;;
2488;SDS011;1255;48.716;9.124;2023-02-12T09:01:29;20.05;;;13.73;;
2488;SDS011;1255;48.716;9.124;2023-02-12T09:03:57;22.77;;;14.70;;
2488;SDS011;1255;48.716;9.124;2023-02-12T09:06:27;23.83;;;15.15;;
2488;SDS011;1255;48.716;9.124;2023-02-12T09:08:56;24.35;;;16.15;;
2488;SDS011;1255;48.716;9.124;2023-02-12T09:11:24;24.20;;;14.70;;
2488;SDS011;1255;48.716;9.124;2023-02-12T09:13:55;24.98;;;15.02;;
2488;SDS011;1255;48.716;9.124;2023-02-12T09:16:23;24.80;;;15.43;;
2488;SDS011;1255;48.716;9.124;2023-02-12T09:18:50;20.70;;;15.10;;
2488;SDS011;1255;48.716;9.124;2023-02-12T09:21:17;22.08;;;15.25;;
2488;SDS011;1255;48.716;9.124;2023-02-12T09:23:46;24.33;;;16.42;;
2488;SDS011;1255;48.716;9.124;2023-02-12T09:26:13;27.92;;;17.48;;
2488;SDS011;1255;48.716;9.124;2023-02-12T09:28:44;30.98;;;15.80;;
2488;SDS011;1255;48.716;9.124;2023-02-12T09:31:13;25.58;;;13.88;;
2488;SDS011;1255;48.716;9.124;2023-02-12T09:33:41;27.13;;;16.85;;
2488;SDS011;1255;48.716;9.124;2023-02-12T09:36:10;22.00;;;14.52;;
2488;SDS011;1255;48.716;9.124;2023-02-12T09:38:38;22.77;;;14.00;;
2488;SDS011;1255;48.716;9.124;2023-02-12T09:41:11;21.83;;;13.50;;
2488;SDS011;1255;48.716;9.124;2023-02-12T09:43:50;15.90;;;12.27;;
2488;SDS011;1255;48.716;9.124;2023-02-12T09:46:22;19.80;;;11.45;;
2488;SDS011;1255;48.716;9.124;2023-02-12T09:48:56;18.85;;;11.85;;
2488;SDS011;1255;48.716;9.124;2023-02-12T09:51:32;14.68;;;10.35;;
2488;SDS011;1255;48.716;9.124;2023-02-12T09:54:00;12.38;;;8.60;;
2488;SDS011;1255;48.716;9.124;2023-02-12T09:56:31;10.77;;;7.32;;
2488;SDS011;1255;48.716;9.124;2023-02-12T09:59:01;12.25;;;9.00;;
2488;SDS011;1255;48.716;9.124;2023-02-12T10:01:31;11.18;;;7.45;;
2488;SDS011;1255;48.716;9.124;2023-02-12T10:03:58;13.60;;;8.68;;
2488;SDS011;1255;48.716;9.124;2023-02-12T10:06:29;7.13;;;5.55;;
2488;SDS011;1255;48.716;9.124;2023-02-12T10:09:10;13.02;;;7.93;;
2488;SDS011;1255;48.716;9.124;2023-02-12T10:11:53;9.40;;;6.10;;
2488;SDS011;1255;48.716;9.124;2023-02-12T10:14:33;8.60;;;6.40;;
2488;SDS011;1255;48.716;9.124;2023-02-12T10:17:18;6.60;;;5.80;;
2488;SDS011;1255;48.716;9.124;2023-02-12T10:19:56;9.02;;;4.63;;
2488;SDS011;1255;48.716;9.124;2023-02-12T10:22:42;8.07;;;3.63;;
2488;SDS011;1255;48.716;9.124;2023-02-12T10:25:19;7.25;;;5.43;;
2488;SDS011;1255;48.716;9.124;2023-02-12T10:27:55;9.43;;;6.10;;
2488;SDS011;1255;48.716;9.124;2023-02-12T10:30:26;4.82;;;4.40;;
2488;SDS011;1255;48.716;9.124;2023-02-12T10:33:02;6.80;;;4.40;;
2488;SDS011;1255;48.716;9.124;2023-02-12T10:35:32;9.23;;;5.53;;
2488;SDS011;1255;48.716;9.124;2023-02-12T10:38:01;6.57;;;4.70;;
2488;SDS011;1255;48.716;9.124;2023-02-12T10:40:33;8.77;;;5.40;;
2488;SDS011;1255;48.716;9.124;2023-02-12T10:43:04;7.72;;;5.13;;
2488;SDS011;1255;48.716;9.124;2023-02-12T10:45:38;10.65;;;5.93;;
2488;SDS011;1255;48.716;9.124;2023-02-12T10:48:10;7.30;;;5.22;;
2488;SDS011;1255;48.716;9.124;2023-02-12T10:50:43;10.20;;;5.47;;
2488;SDS011;1255;48.716;9.124;2023-02-12T10:53:17;6.53;;;4.70;;
2488;SDS011;1255;48.716;9.124;2023-02-12T10:55:47;7.47;;;5.00;;
2488;SDS011;1255;48.716;9.124;2023-02-12T10:58:22;6.50;;;5.00;;
2488;SDS011;1255;48.716;9.124;2023-02-12T11:01:12;7.75;;;4.40;;
2488;SDS011;1255;48.716;9.124;2023-02-12T11:03:41;8.40;;;4.93;;
2488;SDS011;1255;48.716;9.124;2023-02-12T11:06:14;6.72;;;4.80;;
2488;SDS011;1255;48.716;9.124;2023-02-12T11:08:44;6.40;;;4.30;;
2488;SDS011;1255;48.716;9.124;2023-02-12T11:11:11;5.28;;;4.22;;
2488;SDS011;1255;48.716;9.124;2023-02-12T11:13:43;4.53;;;3.47;;
2488;SDS011;1255;48.716;9.124;2023-02-12T11:16:26;6.18;;;4.53;;
2488;SDS011;1255;48.716;9.124;2023-02-12T11:18:56;5.75;;;4.38;;
2488;SDS011;1255;48.716;9.124;2023-02-12T11:21:25;8.23;;;3.95;;
2488;SDS011;1255;48.716;9.124;2023-02-12T11:23:52;5.03;;;4.03;;
2488;SDS011;1255;48.716;9.124;2023-02-12T11:26:23;5.70;;;3.75;;
2488;SDS011;1255;48.716;9.124;2023-02-12T11:28:56;6.60;;;4.15;;
2488;SDS011;1255;48.716;9.124;2023-02-12T11:31:28;7.28;;;5.13;;
2488;SDS011;1255;48.716;9.124;2023-02-12T11:34:05;5.47;;;4.70;;
2488;SDS011;1255;48.716;9.124;2023-02-12T11:36:35;6.13;;;4.68;;
2488;SDS011;1255;48.716;9.124;2023-02-12T11:39:03;4.82;;;4.28;;
2488;SDS011;1255;48.716;9.124;2023-02-12T11:41:32;7.47;;;4.97;;
2488;SDS011;1255;48.716;9.124;2023-02-12T11:44:02;6.35;;;4.50;;
2488;SDS011;1255;48.716;9.124;2023-02-12T11:46:35;6.95;;;5.13;;
2488;SDS011;1255;48.716;9.124;2023-02-12T11:49:03;8.23;;;5.03;;
2488;SDS011;1255;48.716;9.124;2023-02-12T11:51:36;10.75;;;5.90;;
2488;SDS011;1255;48.716;9.124;2023-02-12T11:54:03;5.55;;;4.40;;
2488;SDS011;1255;48.716;9.124;2023-02-12T11:56:39;6.15;;;4.28;;
2488;SDS011;1255;48.716;9.124;2023-02-12T11:59:11;4.60;;;3.97;;
2488;SDS011;1255;48.716;9.124;2023-02-12T12:01:47;7.40;;;4.95;;
2488;SDS011;1255;48.716;9.124;2023-02-12T12:04:19;6.13;;;4.75;;
2488;SDS011;1255;48.716;9.124;2023-02-12T12:06:48;5.60;;;4.35;;
2488;SDS011;1255;48.716;9.124;2023-02-12T12:09:19;4.90;;;3.97;;
2488;SDS011;1255;48.716;9.124;2023-02-12T12:11:53;8.07;;;6.05;;
2488;SDS011;1255;48.716;9.124;2023-02-12T12:14:25;7.80;;;4.63;;
2488;SDS011;1255;48.716;9.124;2023-02-12T12:16:55;6.38;;;3.83;;
2488;SDS011;1255;48.716;9.124;2023-02-12T12:19:47;6.82;;;4.35;;
2488;SDS011;1255;48.716;9.124;2023-02-12T12:25:12;7.22;;;5.28;;
2488;SDS011;1255;48.716;9.124;2023-02-12T12:27:48;5.38;;;3.65;;
2488;SDS011;1255;48.716;9.124;2023-02-12T12:30:32;4.63;;;3.67;;
2488;SDS011;1255;48.716;9.124;2023-02-12T12:33:16;5.82;;;4.00;;
2488;SDS011;1255;48.716;9.124;2023-02-12T12:35:52;8.80;;;4.93;;
2488;SDS011;1255;48.716;9.124;2023-02-12T12:38:41;6.93;;;4.60;;
2488;SDS011;1255;48.716;9.124;2023-02-12T12:41:19;5.10;;;3.95;;
2488;SDS011;1255;48.716;9.124;2023-02-12T12:43:55;8.95;;;4.13;;
2488;SDS011;1255;48.716;9.124;2023-02-12T12:46:35;5.57;;;3.90;;
2488;SDS011;1255;48.716;9.124;2023-02-12T12:49:38;4.88;;;3.70;;
2488;SDS011;1255;48.716;9.124;2023-02-12T12:55:10;4.82;;;3.40;;
2488;SDS011;1255;48.716;9.124;2023-02-12T12:57:54;5.60;;;4.55;;
2488;SDS011;1255;48.716;9.124;2023-02-12T13:00:39;4.65;;;3.97;;
2488;SDS011;1255;48.716;9.124;2023-02-12T13:03:20;5.65;;;3.80;;
2488;SDS011;1255;48.716;9.124;2023-02-12T13:09:00;7.03;;;4.50;;
2488;SDS011;1255;48.716;9.124;2023-02-12T13:11:40;5.88;;;4.60;;
2488;SDS011;1255;48.716;9.124;2023-02-12T13:14:22;5.30;;;3.85;;
2488;SDS011;1255;48.716;9.124;2023-02-12T13:16:57;6.75;;;3.92;;
2488;SDS011;1255;48.716;9.124;2023-02-12T13:19:34;5.15;;;3.70;;
2488;SDS011;1255;48.716;9.124;2023-02-12T13:22:09;5.07;;;3.85;;
2488;SDS011;1255;48.716;9.124;2023-02-12T13:24:42;4.30;;;3.90;;
2488;SDS011;1255;48.716;9.124;2023-02-12T13:27:15;3.67;;;3.28;;
2488;SDS011;1255;48.716;9.124;2023-02-12T13:29:47;4.35;;;3.25;;
2488;SDS011;1255;48.716;9.124;2023-02-12T13:32:19;3.58;;;3.20;;
2488;SDS011;1255;48.716;9.124;2023-02-12T13:34:51;6.85;;;3.05;;
2488;SDS011;1255;48.716;9.124;2023-02-12T13:37:19;4.75;;;3.60;;
2488;SDS011;1255;48.716;9.124;2023-02-12T13:39:54;4.70;;;3.53;;
2488;SDS011;1255;48.716;9.124;2023-02-12T13:42:28;5.38;;;3.20;;
2488;SDS011;1255;48.716;9.124;2023-02-12T13:45:13;4.47;;;3.03;;
2488;SDS011;1255;48.716;9.124;2023-02-12T13:47:49;3.92;;;3.10;;
2488;SDS011;1255;48.716;9.124;2023-02-12T13:50:29;3.50;;;2.80;;
2488;SDS011;1255;48.716;9.124;2023-02-12T13:53:06;5.85;;;3.30;;
2488;SDS011;1255;48.716;9.124;2023-02-12T13:55:47;3.42;;;2.75;;
2488;SDS011;1255;48.716;9.124;2023-02-12T13:58:38;3.60;;;2.70;;
2488;SDS011;1255;48.716;9.124;2023-02-12T14:01:14;3.50;;;3.20;;
2488;SDS011;1255;48.716;9.124;2023-02-12T14:04:19;3.17;;;2.70;;
2488;SDS011;1255;48.716;9.124;2023-02-12T14:06:54;3.90;;;2.97;;
2488;SDS011;1255;48.716;9.124;2023-02-12T14:09:26;3.60;;;2.53;;
2488;SDS011;1255;48.716;9.124;2023-02-12T14:11:58;3.17;;;2.75;;
2488;SDS011;1255;48.716;9.124;2023-02-12T14:14:26;2.70;;;2.35;;
2488;SDS011;1255;48.716;9.124;2023-02-12T14:16:56;3.20;;;2.92;;
2488;SDS011;1255;48.716;9.124;2023-02-12T14:19:35;4.15;;;2.80;;
2488;SDS011;1255;48.716;9.124;2023-02-12T14:22:10;3.28;;;2.72;;
2488;SDS011;1255;48.716;9.124;2023-02-12T14:24:48;3.60;;;3.22;;
2488;SDS011;1255;48.716;9.124;2023-02-12T14:27:28;10.70;;;2.88;;
2488;SDS011;1255;48.716;9.124;2023-02-12T14:33:08;3.45;;;3.15;;
2488;SDS011;1255;48.716;9.124;2023-02-12T14:35:47;3.15;;;2.88;;
2488;SDS011;1255;48.716;9.124;2023-02-12T14:41:27;3.03;;;2.28;;
2488;SDS011;1255;48.716;9.124;2023-02-12T14:47:10;3.50;;;2.45;;
2488;SDS011;1255;48.716;9.124;2023-02-12T14:49:52;2.92;;;2.50;;
2488;SDS011;1255;48.716;9.124;2023-02-12T14:52:22;3.45;;;2.70;;
2488;SDS011;1255;48.716;9.124;2023-02-12T14:54:53;2.35;;;2.10;;
2488;SDS011;1255;48.716;9.124;2023-02-12T14:57:23;3.50;;;2.55;;
2488;SDS011;1255;48.716;9.124;2023-02-12T14:59:51;2.35;;;2.15;;
2488;SDS011;1255;48.716;9.124;2023-02-12T15:02:23;3.60;;;2.60;;
2488;SDS011;1255;48.716;9.124;2023-02-12T15:04:51;2.90;;;2.60;;
2488;SDS011;1255;48.716;9.124;2023-02-12T15:07:22;2.25;;;2.03;;
2488;SDS011;1255;48.716;9.124;2023-02-12T15:09:55;3.55;;;2.28;;
2488;SDS011;1255;48.716;9.124;2023-02-12T15:12:33;2.80;;;2.60;;
2488;SDS011;1255;48.716;9.124;2023-02-12T15:15:04;3.78;;;2.55;;
2488;SDS011;1255;48.716;9.124;2023-02-12T15:17:38;3.60;;;2.40;;
2488;SDS011;1255;48.716;9.124;2023-02-12T15:20:12;2.85;;;2.60;;
2488;SDS011;1255;48.716;9.124;2023-02-12T15:22:45;2.28;;;1.98;;
2488;SDS011;1255;48.716;9.124;2023-02-12T15:25:13;2.92;;;2.40;;
2488;SDS011;1255;48.716;9.124;2023-02-12T15:27:43;3.33;;;2.60;;
2488;SDS011;1255;48.716;9.124;2023-02-12T15:30:13;3.03;;;2.63;;
2488;SDS011;1255;48.716;9.124;2023-02-12T15:32:42;4.93;;;2.75;;
2488;SDS011;1255;48.716;9.124;2023-02-12T15:35:16;4.43;;;2.35;;
2488;SDS011;1255;48.716;9.124;2023-02-12T15:37:48;2.15;;;1.95;;
2488;SDS011;1255;48.716;9.124;2023-02-12T15:40:15;2.35;;;2.15;;
2488;SDS011;1255;48.716;9.124;2023-02-12T15:42:51;2.42;;;1.95;;